createdAt,value
2023-03-21T00:01:51.510Z,8.01
2023-03-21T00:04:18.503Z,8.11
2023-03-21T00:06:45.526Z,7.99
2023-03-21T00:09:12.839Z,8.07
2023-03-21T00:11:39.629Z,8.01
2023-03-21T00:14:08.725Z,8.03
2023-03-21T00:16:36.779Z,8.04
2023-03-21T00:19:06.611Z,8.03
2023-03-21T00:21:55.585Z,7.96
2023-03-21T00:24:22.131Z,7.98
2023-03-21T00:26:50.381Z,7.96
2023-03-21T00:29:17.619Z,8.24
2023-03-21T00:31:44.294Z,8.07
2023-03-21T00:36:38.390Z,7.97
2023-03-21T00:39:06.255Z,8.05
2023-03-21T00:41:42.549Z,7.96
2023-03-21T00:44:13.714Z,7.98
2023-03-21T00:46:47.208Z,7.95
2023-03-21T00:49:16.664Z,7.98
2023-03-21T00:51:44.492Z,7.91
2023-03-21T00:54:12.706Z,7.99
2023-03-21T00:56:39.389Z,8.02
2023-03-21T00:59:06.445Z,7.95
2023-03-21T01:01:33.283Z,7.93
2023-03-21T01:04:04.907Z,7.93
2023-03-21T01:06:40.547Z,7.90
2023-03-21T01:09:19.872Z,7.95
2023-03-21T01:11:46.670Z,7.95
2023-03-21T01:14:22.912Z,7.90
2023-03-21T01:16:52.623Z,7.96
2023-03-21T01:19:27.566Z,7.94
2023-03-21T01:21:56.862Z,7.93
2023-03-21T01:24:25.050Z,7.92
2023-03-21T01:26:51.724Z,7.91
2023-03-21T01:29:18.375Z,7.94
2023-03-21T01:31:45.518Z,7.94
2023-03-21T01:34:12.562Z,7.94
2023-03-21T01:36:39.341Z,7.92
2023-03-21T01:39:06.717Z,7.93
2023-03-21T01:41:42.926Z,8.04
2023-03-21T01:44:15.548Z,7.93
2023-03-21T01:47:00.377Z,7.90
2023-03-21T01:49:45.832Z,7.92
2023-03-21T01:52:29.733Z,7.95
2023-03-21T01:55:03.823Z,7.98
2023-03-21T01:57:45.201Z,7.93
2023-03-21T02:00:16.867Z,7.92
2023-03-21T02:02:52.610Z,7.94
2023-03-21T02:05:26.406Z,7.97
2023-03-21T02:07:53.204Z,7.92
2023-03-21T02:10:20.580Z,7.93
2023-03-21T02:12:47.710Z,7.97
2023-03-21T02:15:14.859Z,7.96
2023-03-21T02:17:49.621Z,8.03
2023-03-21T02:20:28.270Z,7.95
2023-03-21T02:23:04.935Z,7.95
2023-03-21T02:26:02.684Z,7.97
2023-03-21T02:28:52.714Z,7.97
2023-03-21T02:31:38.933Z,8.01
2023-03-21T02:34:47.495Z,7.95
2023-03-21T02:37:28.837Z,8.01
2023-03-21T02:40:16.886Z,8.14
2023-03-21T02:42:59.476Z,8.08
2023-03-21T02:45:33.494Z,8.04
2023-03-21T02:48:06.928Z,8.20
2023-03-21T02:50:55.137Z,8.13
2023-03-21T02:53:28.581Z,8.03
2023-03-21T02:55:56.760Z,8.02
2023-03-21T02:58:25.814Z,8.09
2023-03-21T03:00:55.438Z,8.08
2023-03-21T03:03:33.368Z,8.02
2023-03-21T03:06:03.743Z,8.04
2023-03-21T03:09:01.934Z,8.06
2023-03-21T03:11:37.826Z,8.03
2023-03-21T03:17:28.504Z,7.96
2023-03-21T03:20:29.472Z,8.02
2023-03-21T03:23:22.975Z,7.99
2023-03-21T03:25:56.929Z,8.04
2023-03-21T03:28:28.891Z,8.03
2023-03-21T03:31:08.547Z,8.01
2023-03-21T03:33:40.379Z,8.02
2023-03-21T03:36:21.450Z,8.03
2023-03-21T03:38:49.823Z,7.99
2023-03-21T03:41:25.637Z,7.98
2023-03-21T03:43:59.615Z,8.19
2023-03-21T03:46:50.441Z,8.08
2023-03-21T03:49:26.483Z,8.00
2023-03-21T03:51:58.863Z,8.05
2023-03-21T03:54:39.372Z,8.03
2023-03-21T03:57:08.121Z,8.08
2023-03-21T03:59:37.040Z,8.00
2023-03-21T04:02:05.075Z,8.07
2023-03-21T04:04:31.961Z,8.26
2023-03-21T04:06:58.721Z,8.18
2023-03-21T04:09:41.248Z,8.10
2023-03-21T04:12:10.201Z,8.23
2023-03-21T04:14:44.576Z,8.13
2023-03-21T04:17:12.704Z,8.11
2023-03-21T04:19:39.384Z,8.22
2023-03-21T04:22:06.588Z,8.19
2023-03-21T04:24:33.982Z,8.08
2023-03-21T04:27:01.268Z,8.09
2023-03-21T04:29:29.726Z,8.08
2023-03-21T04:31:56.620Z,8.16
2023-03-21T04:34:24.060Z,8.12
2023-03-21T04:36:54.052Z,8.04
2023-03-21T04:39:22.020Z,8.14
2023-03-21T04:41:49.677Z,8.27
2023-03-21T04:44:17.773Z,8.21
2023-03-21T04:46:45.022Z,8.35
2023-03-21T04:49:11.769Z,8.21
2023-03-21T04:51:39.322Z,8.13
2023-03-21T04:54:06.827Z,8.26
2023-03-21T04:56:35.631Z,8.08
2023-03-21T04:59:08.612Z,8.09
2023-03-21T05:01:35.353Z,8.14
2023-03-21T05:04:04.336Z,8.08
2023-03-21T05:06:32.061Z,8.23
2023-03-21T05:09:00.623Z,8.21
2023-03-21T05:11:28.368Z,8.29
2023-03-21T05:13:55.054Z,8.18
2023-03-21T05:16:25.510Z,8.13
2023-03-21T05:18:54.732Z,8.23
2023-03-21T05:21:22.718Z,8.17
2023-03-21T05:23:54.251Z,8.19
2023-03-21T05:26:22.938Z,8.17
2023-03-21T05:28:50.125Z,8.20
2023-03-21T05:31:18.230Z,8.15
2023-03-21T05:33:45.627Z,8.14
2023-03-21T05:36:12.792Z,8.30
2023-03-21T05:38:45.668Z,8.21
2023-03-21T05:41:13.754Z,8.12
2023-03-21T05:43:40.599Z,8.20
2023-03-21T05:46:08.058Z,8.32
2023-03-21T05:48:34.948Z,8.29
2023-03-21T05:51:02.387Z,8.28
2023-03-21T05:53:29.345Z,8.25
2023-03-21T05:55:56.050Z,8.28
2023-03-21T05:58:22.861Z,8.30
2023-03-21T06:00:49.861Z,8.28
2023-03-21T06:03:16.808Z,8.26
2023-03-21T06:05:43.516Z,8.29
2023-03-21T06:08:10.219Z,8.41
2023-03-21T06:10:36.978Z,8.49
2023-03-21T06:13:03.894Z,8.62
2023-03-21T06:15:30.925Z,8.48
2023-03-21T06:17:57.625Z,8.41
2023-03-21T06:20:24.332Z,8.58
2023-03-21T06:22:51.004Z,8.56
2023-03-21T06:25:17.797Z,8.48
2023-03-21T06:27:44.461Z,8.68
2023-03-21T06:30:12.732Z,8.52
2023-03-21T06:32:39.491Z,8.57
2023-03-21T06:35:06.725Z,8.73
2023-03-21T06:37:34.415Z,8.76
2023-03-21T06:40:01.243Z,8.96
2023-03-21T06:42:28.070Z,8.91
2023-03-21T06:44:54.759Z,8.83
2023-03-21T06:47:21.457Z,8.90
2023-03-21T06:49:48.460Z,9.00
2023-03-21T06:52:15.103Z,9.04
2023-03-21T06:54:42.351Z,8.99
2023-03-21T06:57:09.042Z,9.03
2023-03-21T06:59:36.340Z,9.06
2023-03-21T07:02:03.029Z,9.21
2023-03-21T07:04:29.885Z,9.09
2023-03-21T07:06:56.623Z,9.13
2023-03-21T07:09:28.002Z,9.26
2023-03-21T07:11:54.668Z,9.18
2023-03-21T07:14:21.405Z,9.32
2023-03-21T07:16:48.103Z,9.39
2023-03-21T07:19:15.806Z,9.52
2023-03-21T07:21:42.553Z,9.63
2023-03-21T07:24:09.379Z,9.58
2023-03-21T07:26:36.288Z,9.66
2023-03-21T07:29:03.054Z,9.57
2023-03-21T07:31:29.996Z,9.57
2023-03-21T07:33:56.739Z,9.48
2023-03-21T07:36:23.649Z,9.41
2023-03-21T07:38:50.925Z,9.53
2023-03-21T07:41:17.677Z,9.52
2023-03-21T07:43:44.369Z,9.52
2023-03-21T07:46:11.307Z,9.51
2023-03-21T07:48:38.121Z,9.47
2023-03-21T07:51:06.650Z,9.48
2023-03-21T07:53:33.375Z,9.55
2023-03-21T07:56:00.138Z,9.57
2023-03-21T07:58:28.468Z,9.66
2023-03-21T08:00:58.089Z,9.68
2023-03-21T08:03:26.430Z,9.63
2023-03-21T08:05:53.233Z,9.58
2023-03-21T08:08:19.900Z,9.65
2023-03-21T08:10:46.919Z,9.67
2023-03-21T08:13:13.665Z,9.71
2023-03-21T08:15:42.528Z,9.84
2023-03-21T08:18:10.178Z,9.81
2023-03-21T08:20:36.899Z,9.65
2023-03-21T08:23:03.762Z,9.66
2023-03-21T08:25:30.907Z,9.82
2023-03-21T08:27:57.599Z,9.69
2023-03-21T08:30:26.426Z,9.76
2023-03-21T08:33:00.505Z,9.69
2023-03-21T08:35:28.064Z,9.69
2023-03-21T08:37:54.755Z,9.74
2023-03-21T08:40:21.669Z,9.70
2023-03-21T08:42:48.480Z,9.59
2023-03-21T08:45:17.116Z,9.66
2023-03-21T08:47:43.870Z,9.70
2023-03-21T08:50:14.662Z,9.74
2023-03-21T08:52:41.570Z,9.65
2023-03-21T08:55:09.315Z,9.86
2023-03-21T08:57:36.129Z,9.83
2023-03-21T09:00:12.242Z,9.74
2023-03-21T09:02:39.644Z,9.87
2023-03-21T09:05:07.804Z,9.88
2023-03-21T09:07:36.376Z,9.99
2023-03-21T09:10:19.642Z,10.00
2023-03-21T09:12:48.938Z,10.01
2023-03-21T09:15:15.744Z,9.95
2023-03-21T09:17:43.775Z,9.95
2023-03-21T09:20:18.838Z,9.93
2023-03-21T09:22:47.639Z,10.19
2023-03-21T09:25:16.260Z,10.07
2023-03-21T09:27:46.252Z,10.02
2023-03-21T09:30:18.513Z,10.14
2023-03-21T09:32:49.586Z,10.07
2023-03-21T09:35:19.066Z,10.18
2023-03-21T09:37:50.038Z,10.24
2023-03-21T09:40:21.094Z,10.19
2023-03-21T09:43:03.779Z,10.32
2023-03-21T09:45:38.770Z,10.18
2023-03-21T09:48:17.593Z,10.20
2023-03-21T09:50:45.211Z,10.19
2023-03-21T09:53:27.672Z,10.27
2023-03-21T09:55:54.539Z,10.20
2023-03-21T09:58:26.165Z,10.31
2023-03-21T10:00:59.798Z,10.31
2023-03-21T10:03:35.063Z,10.21
2023-03-21T10:06:08.476Z,10.26
2023-03-21T10:08:41.295Z,10.38
2023-03-21T10:11:08.532Z,10.30
2023-03-21T10:13:43.375Z,10.26
2023-03-21T10:16:16.905Z,10.33
2023-03-21T10:18:45.013Z,10.41
2023-03-21T10:21:56.482Z,10.33
2023-03-21T10:24:35.663Z,10.34
2023-03-21T10:27:03.599Z,10.43
2023-03-21T10:29:43.190Z,10.42
2023-03-21T10:32:13.887Z,10.42
2023-03-21T10:34:50.951Z,10.43
2023-03-21T10:37:17.663Z,10.57
2023-03-21T10:39:48.753Z,10.56
2023-03-21T10:42:27.314Z,10.57
2023-03-21T10:44:57.400Z,10.52
2023-03-21T10:47:34.847Z,10.67
2023-03-21T10:50:08.531Z,10.64
2023-03-21T10:52:42.145Z,10.65
2023-03-21T10:55:41.014Z,10.64
2023-03-21T10:58:18.968Z,10.59
2023-03-21T11:00:48.057Z,10.59
2023-03-21T11:03:46.946Z,10.70
2023-03-21T11:06:22.605Z,10.73
2023-03-21T11:08:54.432Z,10.58
2023-03-21T11:11:27.428Z,10.72
2023-03-21T11:14:07.017Z,10.70
2023-03-21T11:16:39.804Z,10.72
2023-03-21T11:19:20.846Z,10.78
2023-03-21T11:21:47.706Z,10.75
2023-03-21T11:24:17.156Z,10.77
2023-03-21T11:26:49.699Z,10.81
2023-03-21T11:29:34.702Z,10.93
2023-03-21T11:32:09.640Z,10.94
2023-03-21T11:34:47.255Z,10.85
2023-03-21T11:37:26.995Z,11.02
2023-03-21T11:40:28.629Z,11.04
2023-03-21T11:43:04.792Z,11.07
2023-03-21T11:45:33.958Z,10.95
2023-03-21T11:48:03.655Z,10.99
2023-03-21T11:50:47.774Z,11.03
2023-03-21T11:53:27.940Z,10.93
2023-03-21T11:56:03.654Z,11.01
2023-03-21T11:58:39.470Z,11.29
2023-03-21T12:01:13.083Z,11.12
2023-03-21T12:04:07.673Z,11.03
2023-03-21T12:06:45.750Z,11.12
2023-03-21T12:09:23.828Z,11.14
2023-03-21T12:11:56.497Z,11.13
2023-03-21T12:15:01.102Z,10.95
2023-03-21T12:17:49.266Z,10.93
2023-03-21T12:20:25.146Z,10.87
2023-03-21T12:23:15.696Z,11.03
2023-03-21T12:26:27.815Z,11.01
2023-03-21T12:29:03.700Z,11.09
2023-03-21T12:32:05.626Z,11.08
2023-03-21T12:34:57.454Z,11.24
2023-03-21T12:37:37.983Z,11.26
2023-03-21T12:40:27.134Z,11.15
2023-03-21T12:43:23.113Z,11.29
2023-03-21T12:45:55.989Z,11.28
2023-03-21T12:48:37.651Z,11.20
2023-03-21T12:51:11.143Z,11.17
2023-03-21T12:53:53.698Z,11.19
2023-03-21T12:56:33.948Z,11.13
2023-03-21T12:59:04.577Z,11.17
2023-03-21T13:01:35.961Z,11.00
2023-03-21T13:04:09.356Z,11.02
2023-03-21T13:06:39.076Z,10.90
2023-03-21T13:09:16.084Z,10.90
2023-03-21T13:11:44.724Z,10.86
2023-03-21T13:14:20.771Z,10.77
2023-03-21T13:17:12.864Z,10.83
2023-03-21T13:19:46.798Z,10.82
2023-03-21T13:22:28.096Z,10.88
2023-03-21T13:25:06.696Z,10.97
2023-03-21T13:27:36.550Z,11.00
2023-03-21T13:30:20.337Z,11.08
2023-03-21T13:32:50.787Z,10.96
2023-03-21T13:35:29.484Z,11.02
2023-03-21T13:38:04.691Z,11.06
2023-03-21T13:41:03.217Z,11.01
2023-03-21T13:43:40.898Z,11.09
2023-03-21T13:46:07.747Z,11.15
2023-03-21T13:49:00.007Z,11.07
2023-03-21T13:51:45.867Z,11.07
2023-03-21T13:54:16.314Z,11.11
2023-03-21T13:56:46.459Z,11.04
2023-03-21T13:59:22.150Z,11.05
2023-03-21T14:02:34.157Z,11.03
2023-03-21T14:05:06.683Z,11.04
2023-03-21T14:07:37.102Z,10.98
2023-03-21T14:10:18.974Z,11.01
2023-03-21T14:12:47.488Z,11.19
2023-03-21T14:15:24.906Z,11.25
2023-03-21T14:17:57.321Z,11.14
2023-03-21T14:20:28.826Z,11.10
2023-03-21T14:22:55.940Z,11.05
2023-03-21T14:25:29.244Z,11.05
2023-03-21T14:28:01.568Z,10.88
2023-03-21T14:30:34.297Z,10.85
2023-03-21T14:33:07.946Z,10.89
2023-03-21T14:35:35.917Z,10.98
2023-03-21T14:38:09.030Z,10.97
2023-03-21T14:40:36.791Z,11.14
2023-03-21T14:43:06.132Z,11.16
2023-03-21T14:45:39.058Z,11.14
2023-03-21T14:48:08.543Z,11.19
2023-03-21T14:50:47.712Z,11.06
2023-03-21T14:53:27.147Z,11.01
2023-03-21T14:56:09.860Z,10.98
2023-03-21T14:58:41.656Z,11.19
2023-03-21T15:01:16.304Z,10.91
2023-03-21T15:03:50.323Z,10.93
2023-03-21T15:06:17.555Z,11.00
2023-03-21T15:08:56.201Z,10.86
2023-03-21T15:11:35.027Z,10.79
2023-03-21T15:14:06.475Z,10.83
2023-03-21T15:16:34.280Z,10.77
2023-03-21T15:19:02.334Z,10.82
2023-03-21T15:21:43.814Z,10.90
2023-03-21T15:24:18.111Z,10.84
2023-03-21T15:26:47.521Z,10.84
2023-03-21T15:29:16.303Z,10.78
2023-03-21T15:31:46.778Z,10.63
2023-03-21T15:34:23.894Z,10.67
2023-03-21T15:36:56.666Z,10.66
2023-03-21T15:39:23.896Z,10.71
2023-03-21T15:41:58.990Z,10.72
2023-03-21T15:44:27.681Z,10.76
2023-03-21T15:46:54.749Z,10.74
2023-03-21T15:49:33.236Z,10.66
2023-03-21T15:52:16.106Z,10.65
2023-03-21T15:54:55.852Z,10.65
2023-03-21T15:57:32.946Z,10.62
2023-03-21T16:00:11.946Z,10.62
2023-03-21T16:02:41.885Z,10.72
2023-03-21T16:05:32.622Z,10.73
2023-03-21T16:08:04.125Z,10.53
2023-03-21T16:10:38.021Z,10.52
2023-03-21T16:13:06.675Z,10.53
2023-03-21T16:15:33.603Z,10.52
2023-03-21T16:18:03.680Z,10.46
2023-03-21T16:20:41.530Z,10.43
2023-03-21T16:23:11.713Z,10.56
2023-03-21T16:25:38.979Z,10.56
2023-03-21T16:28:12.642Z,10.51
2023-03-21T16:30:39.574Z,10.47
2023-03-21T16:33:06.366Z,10.52
2023-03-21T16:35:33.205Z,10.49
2023-03-21T16:37:59.881Z,10.40
2023-03-21T16:40:37.482Z,10.45
2023-03-21T16:43:04.273Z,10.41
2023-03-21T16:45:31.568Z,10.39
2023-03-21T16:47:59.262Z,10.37
2023-03-21T16:50:36.924Z,10.31
2023-03-21T16:53:03.982Z,10.43
2023-03-21T16:55:33.621Z,10.29
2023-03-21T16:58:01.753Z,10.39
2023-03-21T17:00:30.978Z,10.40
2023-03-21T17:03:01.444Z,10.39
2023-03-21T17:05:30.627Z,10.45
2023-03-21T17:08:02.013Z,10.48
2023-03-21T17:10:30.948Z,10.34
2023-03-21T17:12:57.697Z,10.33
2023-03-21T17:15:25.081Z,10.36
2023-03-21T17:17:52.160Z,10.18
2023-03-21T17:20:25.794Z,10.26
2023-03-21T17:22:52.508Z,10.16
2023-03-21T17:25:19.873Z,10.10
2023-03-21T17:27:47.163Z,10.19
2023-03-21T17:30:22.348Z,10.15
2023-03-21T17:32:50.361Z,10.12
2023-03-21T17:35:17.516Z,10.20
2023-03-21T17:37:50.295Z,10.12
2023-03-21T17:40:23.304Z,10.12
2023-03-21T17:42:51.542Z,10.12
2023-03-21T17:45:19.039Z,10.18
2023-03-21T17:47:46.663Z,10.00
2023-03-21T17:50:26.699Z,10.09
2023-03-21T17:52:56.450Z,10.10
2023-03-21T17:55:23.511Z,10.17
2023-03-21T17:57:50.522Z,10.27
2023-03-21T18:00:22.985Z,10.12
2023-03-21T18:02:50.587Z,10.10
2023-03-21T18:05:17.433Z,10.20
2023-03-21T18:08:08.944Z,10.10
2023-03-21T18:10:32.234Z,10.22
2023-03-21T18:12:59.101Z,10.17
2023-03-21T18:15:30.705Z,10.11
2023-03-21T18:17:58.295Z,10.08
2023-03-21T18:20:50.359Z,10.03
2023-03-21T18:23:16.148Z,10.18
2023-03-21T18:25:43.028Z,10.11
2023-03-21T18:28:12.138Z,10.06
2023-03-21T18:31:00.308Z,10.09
2023-03-21T18:33:27.390Z,10.02
2023-03-21T18:35:58.971Z,9.97
2023-03-21T18:38:28.021Z,9.98
2023-03-21T18:40:55.796Z,9.97
2023-03-21T18:46:11.752Z,9.89
2023-03-21T18:48:39.391Z,10.04
2023-03-21T18:51:06.356Z,9.95
2023-03-21T18:53:33.198Z,9.77
2023-03-21T18:56:03.301Z,9.81
2023-03-21T18:58:30.227Z,9.87
2023-03-21T19:00:58.151Z,9.73
2023-03-21T19:03:36.676Z,9.84
2023-03-21T19:06:06.417Z,9.87
2023-03-21T19:08:37.247Z,9.85
2023-03-21T19:11:06.633Z,9.82
2023-03-21T19:13:34.279Z,9.77
2023-03-21T19:16:02.618Z,9.79
2023-03-21T19:18:53.030Z,9.75
2023-03-21T19:21:18.889Z,9.93
2023-03-21T19:24:20.723Z,9.82
2023-03-21T19:26:32.874Z,9.89
2023-03-21T19:28:59.666Z,9.67
2023-03-21T19:31:27.254Z,9.72
2023-03-21T19:33:54.202Z,9.73
2023-03-21T19:36:23.217Z,9.74
2023-03-21T19:38:50.964Z,9.81
2023-03-21T19:41:20.047Z,9.79
2023-03-21T19:43:54.654Z,9.91
2023-03-21T19:46:25.271Z,9.94
2023-03-21T19:48:56.298Z,9.84
2023-03-21T19:51:29.485Z,9.97
2023-03-21T19:54:03.277Z,9.95
2023-03-21T19:56:31.609Z,9.85
2023-03-21T19:58:58.897Z,9.92
2023-03-21T20:01:26.289Z,9.93
2023-03-21T20:03:53.863Z,9.91
2023-03-21T20:06:23.657Z,10.04
2023-03-21T20:09:37.617Z,9.98
2023-03-21T20:11:40.750Z,10.05
2023-03-21T20:16:55.839Z,10.01
2023-03-21T20:19:23.109Z,10.03
2023-03-21T20:21:57.991Z,10.09
2023-03-21T20:24:28.467Z,10.00
2023-03-21T20:26:55.660Z,9.95
2023-03-21T20:32:09.440Z,10.10
2023-03-21T20:34:37.079Z,10.08
2023-03-21T20:37:06.238Z,10.17
2023-03-21T20:39:33.221Z,10.19
2023-03-21T20:41:59.869Z,10.01
2023-03-21T20:44:57.339Z,10.03
2023-03-21T20:47:13.747Z,10.17
2023-03-21T20:49:40.913Z,10.12
2023-03-21T20:52:52.244Z,10.04
2023-03-21T20:54:59.170Z,10.07
2023-03-21T20:57:30.151Z,10.02
2023-03-21T20:59:57.652Z,10.03
2023-03-21T21:02:25.151Z,10.09
2023-03-21T21:05:21.940Z,10.03
2023-03-21T21:07:41.835Z,10.03
2023-03-21T21:10:14.651Z,10.08
2023-03-21T21:12:45.004Z,10.18
2023-03-21T21:15:14.255Z,10.17
2023-03-21T21:18:03.976Z,10.12
2023-03-21T21:20:27.837Z,10.06
2023-03-21T21:23:00.326Z,10.10
2023-03-21T21:25:28.967Z,10.12
2023-03-21T21:27:55.763Z,10.08
2023-03-21T21:30:22.636Z,10.12
2023-03-21T21:32:49.650Z,10.19
2023-03-21T21:35:17.967Z,10.06
2023-03-21T21:37:44.872Z,10.06
2023-03-21T21:40:16.750Z,10.07
2023-03-21T21:42:44.452Z,10.09
2023-03-21T21:45:12.945Z,10.11
2023-03-21T21:47:40.081Z,10.02
2023-03-21T21:50:07.842Z,10.16
2023-03-21T21:52:35.845Z,10.09
2023-03-21T21:55:04.113Z,10.18
2023-03-21T21:57:34.532Z,10.12
2023-03-21T22:00:06.350Z,10.13
2023-03-21T22:02:33.175Z,10.15
2023-03-21T22:04:59.917Z,10.16
2023-03-21T22:07:27.480Z,10.12
2023-03-21T22:09:54.558Z,10.08
2023-03-21T22:12:21.478Z,10.07
2023-03-21T22:14:48.172Z,10.18
2023-03-21T22:17:14.959Z,10.08
2023-03-21T22:19:42.014Z,10.09
2023-03-21T22:22:09.232Z,10.22
2023-03-21T22:24:37.378Z,10.25
2023-03-21T22:27:04.527Z,10.13
2023-03-21T22:29:31.629Z,10.13
2023-03-21T22:31:58.330Z,10.17
2023-03-21T22:34:27.352Z,10.39
2023-03-21T22:36:55.857Z,10.37
2023-03-21T22:39:26.497Z,10.19
2023-03-21T22:42:01.498Z,10.21
2023-03-21T22:44:34.570Z,10.16
2023-03-21T22:47:03.828Z,10.32
2023-03-21T22:49:31.876Z,10.13
2023-03-21T22:51:59.614Z,10.36
2023-03-21T22:54:26.599Z,10.39
2023-03-21T22:56:53.288Z,10.24
2023-03-21T22:59:19.954Z,10.20
2023-03-21T23:01:46.743Z,10.28
2023-03-21T23:04:13.707Z,10.28
2023-03-21T23:06:40.633Z,10.34
2023-03-21T23:09:09.165Z,10.23
2023-03-21T23:11:37.200Z,10.41
2023-03-21T23:14:07.922Z,10.19
2023-03-21T23:16:38.338Z,10.16
2023-03-21T23:19:06.157Z,9.97
2023-03-21T23:21:35.140Z,10.17
2023-03-21T23:24:02.471Z,9.94
2023-03-21T23:26:30.072Z,9.98
2023-03-21T23:29:00.883Z,10.02
2023-03-21T23:31:28.639Z,10.01
2023-03-21T23:33:57.974Z,9.82
2023-03-21T23:36:24.705Z,9.83
2023-03-21T23:38:51.550Z,9.68
2023-03-21T23:41:20.812Z,9.69
2023-03-21T23:43:48.672Z,9.78
2023-03-21T23:46:17.000Z,9.57
2023-03-21T23:48:45.090Z,9.64
2023-03-21T23:51:13.601Z,9.62
2023-03-21T23:53:40.561Z,9.46
2023-03-21T23:56:26.114Z,9.59
2023-03-21T23:58:53.156Z,9.62
